Terminal Aerodrome Forecast
Issued by NWS

Home | Current Version | Previous Version | Text Only | Print | Product List | Glossary On
Versions: 1 2 3 4 5 6 7 8 9 10 11 12
000
FTUS44 KLIX 220500
TAFMSY
TAF
KMSY 220533Z 2206/2306 00000KT P6SM FEW250
     FM221500 36005KT P6SM SCT050
     FM230200 04012G20KT P6SM SCT050=

USA.gov is the U.S. government's official web portal to all federal, state and local government web resources and services.